Terminal Aerodrome Forecast
Issued by NWS Omaha/Valley, NE

Home | Current Version | Previous Version | Text Only | Print | Product List | Glossary On
Versions: 1 2 3 4 5 6 7 8 9 10 11 12 13 14 15 16 17 18 19 20 21 22 23 24 25 26 27 28
000
FTUS43 KOAX 220520
TAFOMA
TAF
KOMA 220520Z 2206/2306 14012KT P6SM BKN050
     FM221100 15013KT P6SM SCT050 SCT250
     FM221600 16015G24KT P6SM SCT070 BKN250
     FM222300 17012KT P6SM BKN035 PROB30 2300/2306 5SM -TSRA
      BKN025CB=

USA.gov is the U.S. government's official web portal to all federal, state and local government web resources and services.